Aviation Digital Data Service (ADDS)

Output produced by METARs form (1342 UTC 10 July 2020)
found at http://www.aviationweather.gov/metar/data/
 
KNMM 101256Z 25004KT 10SM FEW020 FEW160 BKN300 26/24 A3000 RMK AO2 SLP165 T02560239
KNMM 101156Z 18003KT 8SM SCT020 BKN034 BKN160 BKN300 23/23 A2999 RMK AO2 TSE00 SLP163 T2 SET 70054 T02330228 10239 20228 51015
KNMM 101106Z AUTO 00000KT 8SM SCT037 BKN049 23/23 A2999 RMK AO2 TSE00 T02330228
KNMM 101056Z AUTO 19003KT 7SM TS SCT038 BKN055 23/23 A2999 RMK AO2 TSB41 SLP160 T02280228
KNMM 101047Z AUTO 00000KT 9SM TS FEW040 SCT048 SCT060 23/22 A2998 RMK AO2 TSB41 T02280222
KNMM 100956Z AUTO 00000KT 10SM CLR 23/22 A2996 RMK AO2 SLP152 T02280222 $
KNMM 100856Z AUTO 00000KT 8SM FEW065 SCT090 23/22 A2995 RMK AO2 SLP148 T02280222 58002 $
KNMM 100756Z AUTO 00000KT 8SM CLR 23/23 A2996 RMK AO2 SLP150 T02330228 $
KNMM 100722Z AUTO 00000KT 5SM BR FEW075 23/22 A2996 RMK AO2 T02280222 $
KNMM 100714Z AUTO 00000KT 2 1/2SM BR FEW075 23/23 A2996 RMK AO2 T02280228 $
KNMM 100656Z AUTO 00000KT 8SM CLR 23/23 A2997 RMK AO2 SLP153 T02330228 $
KNMM 100556Z AUTO 00000KT 10SM 24/23 A2996 RMK AO2 SLP150 T02390233 10272 20239 403220222 51014 CHINO SOUTH $
KNMM 100456Z 00000KT 10SM CLR 24/23 A2995 RMK AO2 SLP148 T02390233
KNMM 100356Z 26004KT 10SM SCT250 24/23 A2994 RMK AO2 SLP145 T02440233
KNMM 100256Z 20003KT 10SM BKN250 24/23 A2991 RMK AO2 SLP136 T02440233 55003
KNMM 100156Z 16005KT 10SM BKN250 25/24 A2989 RMK AO2 SLP129 T02500239
KNMM 100056Z 27004KT 10SM SCT180 BKN250 26/24 A2993 RMK AO2 SLP140 T02610244
KNMM 092356Z 26005KT 10SM FEW180 BKN250 27/24 A2992 RMK AO2 SLP139 60000 T02670239 10322 20261 58001
KNMM 092256Z 28005KT 10SM FEW035 FEW110 BKN180 BKN250 27/24 A2993 RMK AO2 RAB2158E02 TSE09 SLP140 T1 SET P0000 T02670239
KNMM 092215Z 23005KT 10SM FEW030 SCT100 BKN180 BKN250 26/23 A2993 RMK AO2 RAB2158E02 TSE09 OCNL LTG DSNT NE AND S CB DSNT NE AND S T1 SET P0000 T02610233
KNMM 092156Z COR 25006KT 10SM -TSRA SCT035CB BKN100 BKN250 27/23 A2992 RMK AO2 TSE2059B00B54 SLP139 OCNL LTGICCCCG VC NE TS NE MOV SE T1 SET T02670233
KNMM 092056Z 24010G14KT 10SM TS SCT030CB BKN045 BKN110 29/24 A2993 RMK AO2 TSB39 SLP140 OCNL LTGICCCCG OHD TS OHD MOV E T1 SET T02940239 55013
KNMM 092039Z 25005KT 10SM TS SCT030CB BKN045 BKN250 32/24 A2993 RMK AO2 TSB39 OCNL LTGICCCCG VC S-W TS S-W MOV E T1 SET T03170244
KNMM 091956Z VRB04KT 10SM SCT025 SCT035 BKN250 32/24 A2992 RMK AO2 SLP138 OCNL LTG DSNT S CB DSNT S T2 SET T03170239
KNMM 091856Z 29007KT 10SM SCT020 SCT130 BKN250 31/24 A2995 RMK AO2 SLP148 T2 SET T03060244
KNMM 091756Z 28008KT 10SM SCT016 SCT130 BKN250 29/24 A2996 RMK AO2 SLP153 T2 SET 60054 T02940239 10294 20233 58005
KNMM 091720Z 30004KT 10SM SCT013 SCT060 BKN130 BKN220 28/24 A2997 RMK AO2 T2 SET T02830239
KNMM 091710Z 25005KT 10SM SCT008 BKN011 BKN130 BKN220 28/24 A2997 RMK AO2 T2 SET T02830244
KNMM 091656Z 00000KT 10SM BKN008 BKN130 BKN220 27/24 A2998 RMK AO2 SLP157 T2 SET T02720239
KNMM 091629Z 00000KT 10SM SCT004 SCT070 BKN130 BKN220 26/24 A2998 RMK AO2 T2 SET T02560244
KNMM 091556Z 24003KT 10SM FEW003 FEW040 SCT070 BKN130 BKN220 25/24 A2998 RMK AO2 RAE34 TSE53 SLP161 OCNL LTG DSNT SE CB DSNT SE T1 SET P0024 T02500239
KNMM 091524Z 25004KT 3SM -TSRA BR SCT005CB BKN035 BKN090 BKN250 25/24 A2997 RMK AO2 FRQ LTGICCACG VC SE-S TS SE-S MOV SE T1 SET P0024 T02500239
KNMM 091521Z 28004KT 1 3/4SM +TSRA BR SCT005CB BKN035 BKN090 BKN250 25/24 A2997 RMK AO2 FRQ LTGICCACG VC SE-S TS SE-S MOV SE T1 SET P0024 T02500239
KNMM 091509Z VRB03KT 3/4SM +TSRA BR BKN006CB OVC011 25/24 A2998 RMK AO2 FRQ LTGICCACG OHD TS OHD MOV SE T1 SET P0019 T02500239
KNMM 091456Z 28010KT 1 1/2SM +TSRA BR BKN006CB OVC011 26/24 A2998 RMK AO2 RAB56 TSB41 SLP158 FRQ LTGICCACG OHD TS OHD MOV SE T1 SET P0000 60030 T02610239 51007
KNMM 091441Z 28006KT 8SM TS OVC004CB 26/24 A2997 RMK AO2 TSB41 FRQ LTGICCACG VC W-NW TS W-NW MOV SE T1 SET T02560239
KNMM 091426Z 27005KT 8SM OVC004 25/24 A2996 RMK AO2 CIG 003V008 OCNL LTG DSNT W CB DSNT W-NW T2 SET T02500239
KNMM 091356Z 00000KT 6SM BR BKN006 OVC009 24/23 A2997 RMK AO2 RAE14 SLP154 CB DSNT NW T2 SET P0000 T02440233
KNMM 091316Z 00000KT 6SM BR OVC007 24/23 A2997 RMK AO2 RAE14 CB DSNT SE T1 SET P0000 T02390228
KNMM 091306Z 29003KT 3SM -RA BR FEW003 OVC007CB 23/23 A2997 RMK AO2 OCNL LTG DSNT SE CB OHD MOV SE AND DSNT SE T1 SET P0000 T02330228
KNMM 091256Z 00000KT 1 1/4SM +RA BR FEW003 OVC007CB 23/23 A2997 RMK AO2 VIS 1/2V5 SLP157 OCNL LTGIC DSNT SE CB OHD MOV SE AND DSNT SE T1 SET P0030 T02330228
KNMM 091250Z 24003KT 3SM -RA BR FEW003 BKN007CB OVC011 23/23 A2997 RMK AO2 CB OHD MOV SE T1 SET P0024
KNMM 091248Z 25003KT 1 1/4SM -RA BR OVC005CB 23/23 A2997 RMK AO2 CB OHD MOV SE T1 SET P0024 T02330228
KNMM 091239Z 36005KT 1/2SM +RA FG BKN005CB OVC011 23/23 A2997 RMK AO2 CB OHD MOV SE T1 SET P0023 T02330228
KNMM 091237Z 33005KT 1SM -RA BR BKN005CB OVC011 23/23 A2997 RMK AO2 CB OHD MOV SE T1 SET P0016 T02330228
KNMM 091208Z 26003KT 3SM -RA BR BKN005CB OVC011 23/23 A2996 RMK AO2 CB OHD MOV SE T1 SET P0003 T02330228
KNMM 091156Z 00000KT 1 1/2SM RA BR BKN005CB OVC011 23/23 A2996 RMK AO2 RAE04B46 SLP151 CB OHD MOV SE T1 SET P0005 60034 70097 T02330228 10233 20222 51013
KNMM 091149Z AUTO 31004KT 1 3/4SM -RA BR BKN005 OVC011 23/23 A2996 RMK AO2 RAE04B46 CIG 003V007 P0002 T02330228
KNMM 091056Z AUTO 23004KT 9SM -RA OVC008 23/22 A2995 RMK AO2 RAB06 SLP147 P0029 T02280222
KNMM 091042Z AUTO 23004KT 8SM -RA BKN009 BKN012 OVC022 23/22 A2994 RMK AO2 RAB06 P0029 T02280222
KNMM 091023Z AUTO 28009KT 2 1/2SM RA BR BKN009 BKN014 OVC028 23/22 A2994 RMK AO2 RAB06 P0022 T02280217
KNMM 091020Z AUTO 29007KT 1 1/2SM RA BR SCT009 BKN014 OVC031 23/22 A2994 RMK AO2 RAB06 CIG 008 SOUTH P0020 T02280217
KNMM 091012Z AUTO 24006KT 1 3/4SM +RA BR BKN009 BKN012 OVC022 23/22 A2993 RMK AO2 RAB06 P0014 T02280217
KNMM 091001Z AUTO 31004KT 10SM BKN009 BKN015 OVC023 23/22 A2993 RMK AO2 CIG 007V012 T02280217
KNMM 090956Z AUTO 00000KT 10SM SCT009 SCT015 BKN023 23/22 A2993 RMK AO2 CIG 010 SOUTH SLP144 T02280217
KNMM 090909Z AUTO 27003KT 10SM FEW007 OVC028 23/22 A2992 RMK AO2 T02280217
KNMM 090856Z AUTO 00000KT 10SM BKN027 OVC034 23/22 A2992 RMK AO2 SLP138 T02280217 55004
KNMM 090835Z AUTO 00000KT 10SM BKN027 BKN041 23/22 A2992 RMK AO2 T02280217
KNMM 090756Z AUTO 00000KT 10SM FEW006 BKN044 22/22 A2992 RMK AO2 SLP137 T02220217
KNMM 090748Z AUTO 24003KT 10SM SCT006 SCT032 BKN042 22/22 A2992 RMK AO2 T02220217
KNMM 090738Z AUTO 26004KT 10SM BKN007 BKN045 22/22 A2992 RMK AO2 T02220217
KNMM 090723Z AUTO 00000KT 10SM FEW007 BKN044 BKN055 22/22 A2992 RMK AO2 CIG 007 SOUTH T02220217
KNMM 090656Z AUTO 00000KT 10SM SCT037 BKN055 22/22 A2992 RMK AO2 CIG 039 SOUTH SLP138 T02220217
KNMM 090556Z AUTO 00000KT 10SM FEW050 22/22 A2993 RMK AO2 SLP143 T02220217 10261 20222 402890222 58006
KNMM 090456Z 00000KT 10SM CLR 22/22 A2995 RMK AO2 SLP147 T02220217
KNMM 090356Z 00000KT 10SM BKN110 23/22 A2995 RMK AO2 SLP148 T02280217
KNMM 090256Z 20003KT 10SM SCT160 23/22 A2995 RMK AO2 SLP148 T02330217 53013
KNMM 090156Z VRB03KT 10SM FEW030 SCT190 BKN250 24/22 A2995 RMK AO2 SLP147 T02390222
KNMM 090056Z 21005KT 10SM FEW020 FEW080 BKN190 BKN280 25/23 A2992 RMK AO2 SLP137 T02500233
KNMM 082356Z 21005KT 10SM FEW020 FEW080 BKN200 BKN280 26/23 A2991 RMK AO2 SLP135 60024 T02610233 10267 20222 58021
KNMM 082256Z 19005KT 10SM SCT014 BKN150 BKN250 26/24 A2994 RMK AO2 SLP144 T02610239
KNMM 082229Z 20003KT 10SM FEW014 BKN100 BKN250 26/23 A2995 RMK AO2 T02610233
KNMM 082156Z VRB03KT 10SM SCT010 BKN016 OVC250 26/23 A2995 RMK AO2 SLP149 T02610233
KNMM 082056Z 20004KT 10SM FEW010 SCT070 BKN120 OVC250 26/23 A2998 RMK AO2 RAB15E24 SLP158 T1 SET P0000 60024 T02560233 55003
KNMM 081956Z 26003KT 10SM FEW010 SCT030 BKN090 25/23 A2997 RMK AO2 SLP155 T1 SET P0001 T02500228
KNMM 081916Z 28005KT 10SM -RA FEW035 BKN100 OVC120 24/22 A2997 RMK AO2 FRQ LTG DSNT NE AND SE CB DSNT NE AND SE T1 SET P0001 T02390222
KNMM 081907Z COR 27004KT 7SM -RA FEW035 BKN100 OVC120 23/22 A2997 RMK AO2 FRQ LTG DSNT NE AND SE CB DSNT NE AND SE T1 SET P0001 T02280217
KNMM 081856Z 25003KT 2 1/2SM TSRA FEW020 SCT035CB BKN090 22/21 A2998 RMK AO2 PK WND 28030/1815 SLP159 FRQ LTGICCCCG VC SE TS SE MOV E T1 SET P0023 T02220211
KNMM 081835Z 29013KT 4SM -TSRA SCT015 BKN030CB OVC070 23/22 A2998 RMK AO2 PK WND 28030/1815 VIS 2 SOUTH FRQ LTGICCCCG OHD TS OHD MOV E T1 SET P0015 T02280217
KNMM 081823Z 29016G30KT 1 3/4SM -TSRA SCT029CB BKN055 OVC090 23/21 A2999 RMK AO2 PK WND 28030/1815 VIS 1 SOUTH FRQ LTGICCCCG OHD TS OHD MOV E T1 SET P0010 T02280211
KNMM 081810Z 28006KT 4SM +TSRA SCT029CB BKN055 OVC090 26/23 A2999 RMK AO2 FRQ LTGICCCCG OHD TS OHD MOV NE T1 SET P0003 T02560233
KNMM 081758Z COR VRB05KT 3/4SM +TSRA FEW013 BKN027CB OVC050 25/22 A2998 RMK AO2 VIS 1/4V2 FRQ LTGICCCCG OHD TS OHD MOV NE T1 SET P0000 T02500222
KNMM 081756Z VRB06KT 1/2SM +TSRA FG SCT015 BKN032CB OVC050 24/22 A2998 RMK AO2 RAB32 TSB50 SLP160 FRQ LTGICCCCG OHD TS OHD MOV NE T1 SET P0038 60039 T02440222 10289 20233 58013
KNMM 081752Z 24006KT 3/4SM +TSRA FEW014 BKN029 OVC055 26/22 A2998 RMK AO2 RAB32 TSB50 FRQ LTG DSNT W CB DSNT W T2 SET P0025
KNMM 081750Z COR 23007KT 5SM +TSRA FEW014 BKN032CB OVC046 26/23 A2998 RMK AO2 RAB32 TSB50 FRQ LTGICCCCG OHD TS OHD MOV NE T1 SET P0024
KNMM 081736Z 08003KT 1 3/4SM +RA SCT014 SCT021 BKN040 27/24 A2997 RMK AO2 RAB32 P0006 T02720244
KNMM 081656Z 00000KT 10SM SCT035 BKN060 OVC100 28/24 A3000 RMK AO2 RAE42 SLP165 P0001 T02780244
KNMM 081556Z 00000KT 10SM -RA FEW040 FEW060 OVC100 27/24 A3002 RMK AO2 RAB26 CIG 055 SOUTH SLP173 P0000 T02670244
KNMM 081456Z 26005KT 10SM SCT080 OVC120 26/23 A3002 RMK AO2 SLP173 T02610233 53005
KNMM 081356Z 25004KT 10SM FEW005 SCT080 OVC110 25/23 A3001 RMK AO2 SLP169 T02500233
KNMM 081256Z 23003KT 10SM SCT065 OVC120 24/23 A3000 RMK AO2 SLP167 T02390228
KNMM 081241Z 24004KT 10SM FEW003 SCT110 24/23 A3001 RMK AO2 T02390228
KNMM 081156Z 00000KT 10SM BKN065 OVC100 23/23 A3001 RMK AO2 SLP167 70001 T02330228 10233 20228 53007
KNMM 081124Z AUTO 00000KT 7SM FEW001 FEW110 23/23 A3001 RMK AO2 T02330228
KNMM 081056Z AUTO 00000KT 7SM FEW065 SCT085 SCT110 23/23 A3000 RMK AO2 SLP166 T02330228
KNMM 080956Z AUTO 00000KT 8SM FEW002 OVC110 23/22 A2999 RMK AO2 SLP161 T02330222
KNMM 080949Z AUTO 00000KT 8SM SCT002 OVC110 23/22 A2999 RMK AO2 CIG 002 SOUTH T02330222
KNMM 080856Z AUTO 25005KT 8SM OVC003 23/23 A2999 RMK AO2 SLP161 T02330228 55000
KNMM 080843Z AUTO 25003KT 10SM BKN004 23/23 A2999 RMK AO2 T02330228
KNMM 080800Z AUTO 27003KT 10SM BKN003 23/23 A2998 RMK AO2 T02330228
KNMM 080756Z AUTO 27003KT 10SM SCT004 23/23 A2998 RMK AO2 SLP159 T02330228
KNMM 080742Z AUTO 26003KT 10SM SCT004 23/23 A2998 RMK AO2 T02330228
KNMM 080731Z AUTO 26003KT 10SM BKN004 23/23 A2998 RMK AO2 T02330228
KNMM 080712Z AUTO 27003KT 10SM BKN003 23/23 A2998 RMK AO2 T02330228
KNMM 080656Z AUTO 26004KT 10SM SCT003 23/23 A2998 RMK AO2 SLP159 T02330228
KNMM 080649Z AUTO 26005KT 10SM FEW003 23/22 A2998 RMK AO2 T02330222
KNMM 080556Z AUTO 00000KT 8SM CLR 23/22 A2999 RMK AO2 SLP161 60000 T02280222 10256 20228 403170222 50008
KNMM 080520Z AUTO 24003KT 10SM FEW008 23/22 A3000 RMK AO2 T02330222
KNMM 080456Z 26003KT 10SM BKN250 23/22 A3000 RMK AO2 SLP165 T02330222
KNMM 080356Z 20003KT 10SM FEW130 BKN250 23/22 A2999 RMK AO2 RAE18 SLP161 P0000 T02330222
KNMM 080256Z 00000KT 10SM -RA OVC130 24/22 A2996 RMK AO2 RAB35 SLP152 T2 SET P0000 60000 T02390222 58004
KNMM 080156Z 02003KT 10SM BKN120 OVC250 25/23 A2997 RMK AO2 SLP156 T2 SET T02500233
KNMM 080056Z 28007KT 10SM FEW020 FEW040 BKN160 OVC250 25/23 A2998 RMK AO2 SLP159 OCNL LTG DSNT N-NE CB DSNT N-NE T1 SET T02500228
KNMM 080017Z 24008KT 10SM FEW018 SCT040 BKN150 OVC250 26/23 A2998 RMK AO2 OCNL LTG DSNT NW-N CB DSNT NW-N T1 SET T02560228
KNMM 072356Z 22008G17KT 10SM BKN018 OVC037 26/23 A2997 RMK AO2 TSB07E45 SLP157 OCNL LTG DSNT NW-N CB DSNT NW-N T1 SET 60001 T02610228 10317 20261 53006
KNMM 072349Z 22007G15KT 10SM SCT018 BKN023 OVC039 26/23 A2998 RMK AO2 TSB07E45 CIG 016 SOUTH OCNL LTG DSNT NW-N CB DSNT NW-N T1 SET T02610228
KNMM 072307Z 21004KT 10SM TS SCT045CB SCT130 BKN180 BKN250 28/24 A2996 RMK AO2 TSB07 OCNL LTGICCCCG VC SE-S TS SE-S MOV E T1 SET T02830239
KNMM 072256Z 23003KT 10SM FEW050 SCT130 BKN180 BKN250 29/24 A2996 RMK AO2 SLP152 OCNL LTG DSNT S AND NW CB DSNT S AND NW T2 SET T02890239
KNMM 072156Z 31005KT 10SM FEW040 SCT130 BKN250 30/22 A2994 RMK AO2 SLP146 OCNL LTG DSNT S CB DSNT S T2 SET T03000222
KNMM 072056Z 35005KT 10SM FEW040 SCT130 BKN250 31/22 A2996 RMK AO2 SLP150 T2 SET 60001 T03110222 55013
KNMM 071956Z VRB04KT 10SM SCT030 SCT110 BKN250 31/24 A2996 RMK AO2 RAB1857E16 SLP150 OCNL LTG DSNT SE CB DSNT SE AND NW T2 SET P0001 T03060244
KNMM 071856Z 01011KT 10SM SCT028CB BKN035 BKN050 BKN250 29/24 A2998 RMK AO2 SLP159 OCNL LTG DSNT E CB OHD MOV E AND DSNT E T2 SET T02940239
KNMM 071756Z COR 28003KT 10SM SCT028CB BKN034 BKN250 31/23 A2999 RMK AO2 SLP163 CB VC NE MOV E T2 SET T03060228 10311 20228 58007
KNMM 071722Z 30008KT 10SM SCT025 BKN040 BKN250 30/23 A3000 RMK AO2 T2 SET T03000233
KNMM 071656Z VRB03KT 10SM BKN021 BKN028 BKN250 29/23 A3001 RMK AO2 SLP168 T02940233
KNMM 071601Z VRB03KT 10SM SCT016 BKN028 BKN250 29/23 A3002 RMK AO2 T02890233
KNMM 071556Z 00000KT 10SM SCT016 BKN028 BKN250 28/23 A3002 RMK AO2 SLP171 T02830233
KNMM 071513Z COR 30003KT 10SM FEW010 BKN027 BKN250 27/23 A3002 RMK AO2 T02720233
KNMM 071456Z 27004KT 10SM BKN010 BKN027 BKN250 27/23 A3002 RMK AO2 CIG 009V014 SLP170 T02670233 51012
KNMM 071433Z 29004KT 10SM BKN006 BKN140 BKN250 26/23 A3001 RMK AO2 T02560233
KNMM 071356Z 28003KT 10SM OVC004 24/23 A3001 RMK AO2 SLP171 T02390233
KNMM 071343Z 00000KT 5SM BR OVC004 24/23 A3001 RMK AO2 T02390233
TAF AMD KNMM 1012/1107 28006KT 9999 FEW020 SCT160 BKN300 QNH2998INS 
     FM101500 29009KT 9999 SCT025 SCT160 BKN300 QNH2996INS 
     FM101800 30010G16KT 9999 SCT055 SCT300 QNH2989INS 
     FM110000 32003KT 9999 FEW050 FEW300 QNH2989INS T23/1012Z T35/1020Z AMD 1210
FN20035